Time;durP1;ratioP1;P1;durP2;ratioP2;P2;SDS_P1;SDS_P2;PMS_P1;PMS_P2;Temp;Humidity;BMP_temperature;BMP_pressure;BME280_temperature;BME280_humidity;BME280_pressure;Samples;Min_cycle;Max_cycle;Signal;HPM_P1;HPM_P2
2020/12/21 05:39:29;;;;;;;28.32;13.65;;;;;;;0.71;83.29;101818.98;1721675;82;21659;-41
2020/12/21 05:42:00;;;;;;;33.80;16.65;;;;;;;0.68;83.03;101819.16;1698226;82;21225;-37
2020/12/21 05:44:28;;;;;;;35.38;14.65;;;;;;;0.65;82.98;101815.12;1687314;83;21162;-37
2020/12/21 05:46:56;;;;;;;29.05;15.55;;;;;;;0.66;82.91;101815.22;1685499;83;21356;-41
2020/12/21 05:49:25;;;;;;;27.65;14.53;;;;;;;0.67;82.80;101828.58;1689620;84;21207;-42
2020/12/21 05:51:58;;;;;;;30.57;15.28;;;;;;;0.71;82.68;101831.86;1691361;83;21168;-40
2020/12/21 05:54:23;;;;;;;31.93;15.65;;;;;;;0.72;82.34;101834.03;1687476;82;21793;-41
2020/12/21 05:56:51;;;;;;;28.67;14.33;;;;;;;0.68;82.08;101832.94;1694430;82;21459;-41
2020/12/21 05:59:19;;;;;;;28.00;14.40;;;;;;;0.71;82.01;101837.41;1678703;82;21344;-41
2020/12/21 06:01:50;;;;;;;26.77;13.78;;;;;;;0.71;81.75;101834.84;1694497;82;21611;-42
2020/12/21 06:04:18;;;;;;;26.30;14.13;;;;;;;0.69;81.68;101830.84;1693926;82;21178;-42
2020/12/21 06:06:48;;;;;;;25.77;13.55;;;;;;;0.66;81.40;101829.38;1653514;84;21321;-35
2020/12/21 06:09:17;;;;;;;29.65;14.55;;;;;;;0.66;81.37;101833.64;1699172;82;21151;-40
2020/12/21 06:11:47;;;;;;;29.48;14.93;;;;;;;0.65;81.36;101840.48;1698889;82;21620;-36
2020/12/21 06:14:17;;;;;;;27.17;13.85;;;;;;;0.67;81.26;101840.17;1682148;82;21252;-36
2020/12/21 06:16:50;;;;;;;24.87;12.33;;;;;;;0.70;80.81;101839.09;1685341;83;21115;-41
2020/12/21 06:19:26;;;;;;;21.23;10.90;;;;;;;0.72;80.03;101842.66;1688485;83;21135;-37
2020/12/21 06:21:56;;;;;;;18.90;9.93;;;;;;;0.70;79.53;101850.69;1699343;82;21600;-37
2020/12/21 06:24:27;;;;;;;15.03;8.85;;;;;;;0.68;79.24;101857.41;1690968;83;21623;-37
2020/12/21 06:26:55;;;;;;;14.23;7.95;;;;;;;0.70;79.00;101856.25;1690706;81;21159;-37
2020/12/21 06:29:26;;;;;;;13.00;7.33;;;;;;;0.68;78.34;101849.68;1683403;82;21199;-37
2020/12/21 06:32:43;;;;;;;12.63;7.95;;;;;;;0.64;77.74;101854.16;1680316;82;21224;-41
2020/12/21 06:36:42;;;;;;;16.80;7.97;;;;;;;0.62;77.36;101864.74;1636060;84;21188;-41
2020/12/21 06:40:40;;;;;;;14.70;8.33;;;;;;;0.56;76.87;101869.89;1716493;81;21469;-42
2020/12/21 06:44:08;;;;;;;13.08;6.33;;;;;;;0.46;76.66;101870.97;1682572;83;22122;-37
2020/12/21 06:46:49;;;;;;;13.50;6.53;;;;;;;0.42;76.16;101877.63;1681684;83;21159;-37
2020/12/21 06:49:29;;;;;;;14.10;7.33;;;;;;;0.37;75.73;101870.38;1724524;81;21722;-38
2020/12/21 06:51:58;;;;;;;13.22;7.40;;;;;;;0.33;75.58;101869.28;1687521;83;21179;-37
2020/12/21 06:54:26;;;;;;;13.53;7.50;;;;;;;0.27;75.72;101867.59;1745010;80;21577;-37
2020/12/21 06:56:53;;;;;;;14.45;6.95;;;;;;;0.29;75.91;101867.68;1743955;80;21738;-37
2020/12/21 06:59:24;;;;;;;11.45;5.97;;;;;;;0.26;75.94;101870.56;1743857;80;21144;-37
2020/12/21 07:01:56;;;;;;;11.18;6.75;;;;;;;0.26;76.02;101871.84;1742598;80;21152;-42
2020/12/21 07:04:30;;;;;;;9.65;5.60;;;;;;;0.26;75.77;101878.68;1719690;81;21777;-42
2020/12/21 07:07:04;;;;;;;10.65;7.00;;;;;;;0.23;75.40;101874.60;1685058;83;21909;-40
2020/12/21 07:09:37;;;;;;;14.78;6.92;;;;;;;0.16;75.34;101874.98;1749456;80;21438;-36
2020/12/21 07:12:07;;;;;;;11.97;6.10;;;;;;;0.12;75.47;101876.89;1739351;80;21355;-36
2020/12/21 07:14:37;;;;;;;12.55;6.03;;;;;;;0.12;75.51;101879.06;1744164;80;21493;-37
2020/12/21 07:17:11;;;;;;;9.48;6.15;;;;;;;0.14;75.50;101882.62;1741836;81;21803;-42
2020/12/21 07:19:48;;;;;;;13.00;6.22;;;;;;;0.12;75.28;101883.32;1737367;80;21201;-41
2020/12/21 07:22:30;;;;;;;10.82;4.92;;;;;;;0.14;75.09;101876.58;1688083;80;21357;-38
2020/12/21 07:24:58;;;;;;;8.35;5.00;;;;;;;0.18;74.77;101878.58;1706793;81;21556;-37
2020/12/21 07:27:26;;;;;;;10.75;5.55;;;;;;;0.14;74.32;101869.75;1727027;80;21161;-36
2020/12/21 07:29:54;;;;;;;10.15;5.33;;;;;;;0.16;74.35;101873.70;1734534;80;21674;-36
2020/12/21 07:32:29;;;;;;;7.37;4.22;;;;;;;0.18;74.02;101876.01;1678520;83;21561;-41
2020/12/21 07:34:57;;;;;;;9.78;4.72;;;;;;;0.18;73.85;101877.30;1680636;83;21684;-41
2020/12/21 07:37:31;;;;;;;6.90;4.42;;;;;;;0.17;73.51;101886.67;1739704;80;21603;-41
2020/12/21 07:39:59;;;;;;;8.80;4.87;;;;;;;0.15;73.50;101879.25;1739738;80;21148;-41
2020/12/21 07:42:29;;;;;;;10.50;5.65;;;;;;;0.12;73.13;101884.61;1742392;81;21159;-37
2020/12/21 07:44:58;;;;;;;8.60;5.35;;;;;;;0.09;73.08;101879.23;1729459;81;21212;-37
2020/12/21 07:47:30;;;;;;;11.88;5.45;;;;;;;0.06;73.26;101880.30;1741390;80;21171;-36
2020/12/21 07:49:59;;;;;;;8.45;5.10;;;;;;;0.04;73.21;101885.75;1739468;80;21148;-36
2020/12/21 07:52:31;;;;;;;8.45;5.30;;;;;;;0.01;73.26;101891.60;1744503;80;21698;-43
2020/12/21 07:54:59;;;;;;;8.50;4.87;;;;;;;-0.01;73.54;101887.61;1746085;80;21854;-36
2020/12/21 07:57:32;;;;;;;10.70;5.12;;;;;;;0.03;73.51;101890.41;1688951;81;21185;-37
2020/12/21 08:00:00;;;;;;;7.90;4.50;;;;;;;0.04;73.26;101892.19;1743772;80;21484;-37
2020/12/21 08:02:30;;;;;;;7.62;4.55;;;;;;;0.04;73.04;101890.50;1685133;83;21967;-41
2020/12/21 08:05:02;;;;;;;10.90;4.65;;;;;;;0.02;73.10;101890.81;1744527;80;21173;-36
2020/12/21 08:07:33;;;;;;;10.30;4.30;;;;;;;0.03;73.24;101886.16;1745918;80;21192;-37
2020/12/21 08:10:04;;;;;;;7.78;4.50;;;;;;;0.02;72.81;101886.06;1719393;81;21166;-41
2020/12/21 08:12:45;;;;;;;7.03;3.97;;;;;;;-0.07;72.68;101880.77;1742261;80;21515;-37
2020/12/21 08:15:19;;;;;;;5.97;3.98;;;;;;;-0.12;72.67;101885.09;1739923;80;21159;-37
2020/12/21 08:17:56;;;;;;;5.95;3.80;;;;;;;-0.13;72.91;101881.64;1697582;80;21826;-37
2020/12/21 08:20:24;;;;;;;8.08;4.30;;;;;;;-0.10;72.82;101882.27;1735770;80;21160;-38
2020/12/21 08:23:00;;;;;;;9.18;5.65;;;;;;;-0.10;72.91;101875.83;1700355;80;21543;-42
2020/12/21 08:25:37;;;;;;;8.88;4.72;;;;;;;-0.07;72.89;101880.77;1734757;80;21683;-37
2020/12/21 08:28:05;;;;;;;7.05;4.03;;;;;;;-0.05;72.58;101882.18;1740421;80;21225;-37
2020/12/21 08:43:11;;;;;;;8.18;4.85;;;;;;;0.05;72.25;101883.27;1736515;80;21322;-37
2020/12/21 08:46:28;;;;;;;11.80;5.22;;;;;;;0.03;72.16;101882.29;1735060;80;21132;-40
2020/12/21 08:49:10;;;;;;;9.35;5.42;;;;;;;-0.01;72.03;101873.45;1734382;81;21201;-40
2020/12/21 08:51:39;;;;;;;7.62;5.08;;;;;;;0.01;72.12;101878.73;1738075;80;21183;-36
2020/12/21 08:54:07;;;;;;;7.85;4.62;;;;;;;0.05;72.00;101874.27;1736478;80;21978;-37
2020/12/21 08:56:35;;;;;;;8.90;4.62;;;;;;;0.06;71.70;101869.64;1732822;80;21301;-41
2020/12/21 08:59:03;;;;;;;7.28;4.83;;;;;;;0.04;71.68;101871.20;1735970;81;21651;-41
2020/12/21 09:01:31;;;;;;;7.85;5.33;;;;;;;0.03;71.67;101869.42;1725237;80;21758;-37
2020/12/21 09:04:02;;;;;;;8.00;5.12;;;;;;;0.03;71.51;101863.39;1734722;80;21156;-41
2020/12/21 09:06:30;;;;;;;12.98;5.45;;;;;;;0.00;71.75;101862.80;1744011;80;21189;-41
2020/12/21 09:08:58;;;;;;;11.15;5.97;;;;;;;-0.01;71.61;101865.73;1729177;80;21164;-37
2020/12/21 09:11:28;;;;;;;8.85;5.72;;;;;;;-0.08;71.75;101861.38;1664617;83;21656;-37
2020/12/21 09:14:01;;;;;;;12.70;6.67;;;;;;;-0.12;72.07;101864.12;1732791;80;21297;-42
2020/12/21 09:16:34;;;;;;;11.55;5.87;;;;;;;-0.19;72.11;101859.75;1690607;82;21184;-35
2020/12/21 09:19:04;;;;;;;15.45;6.65;;;;;;;-0.21;72.21;101860.05;1731814;80;21680;-39
2020/12/21 09:21:33;;;;;;;9.13;6.15;;;;;;;-0.22;72.22;101850.16;1724453;80;21216;-35
2020/12/21 09:24:12;;;;;;;10.20;7.25;;;;;;;-0.26;72.03;101850.73;1717538;80;21176;-41
2020/12/21 09:26:59;;;;;;;9.57;4.57;;;;;;;-0.31;72.03;101844.38;1736805;80;21519;-37
2020/12/21 09:29:29;;;;;;;9.08;5.72;;;;;;;-0.36;71.94;101848.31;1660592;83;21152;-37
2020/12/21 09:32:18;;;;;;;9.85;6.40;;;;;;;-0.40;71.76;101854.05;1713967;81;21179;-37
2020/12/21 09:36:00;;;;;;;9.93;5.30;;;;;;;-0.46;71.72;101854.52;1714858;81;21204;-43
2020/12/21 09:39:25;;;;;;;9.33;5.97;;;;;;;-0.47;71.98;101847.57;1711529;80;22001;-38
2020/12/21 09:46:19;;;;;;;8.93;5.70;;;;;;;-0.51;71.79;101837.88;1736976;81;21208;-41
2020/12/21 09:49:10;;;;;;;7.50;4.80;;;;;;;-0.59;71.77;101837.73;1739931;80;21174;-41
2020/12/21 09:51:43;;;;;;;20.77;8.18;;;;;;;-0.66;71.93;101834.24;1703458;81;21144;-45
2020/12/21 09:54:11;;;;;;;13.40;6.83;;;;;;;-0.67;71.90;101838.89;1743851;80;21173;-40
2020/12/21 09:56:44;;;;;;;11.43;6.60;;;;;;;-0.67;71.87;101835.03;1683955;83;21782;-37
2020/12/21 09:59:15;;;;;;;10.48;6.35;;;;;;;-0.63;71.72;101831.50;1697385;80;21250;-41
2020/12/21 10:01:50;;;;;;;9.43;6.35;;;;;;;-0.65;71.57;101836.02;1741160;80;21665;-41
2020/12/21 10:04:20;;;;;;;7.72;5.20;;;;;;;-0.68;71.56;101839.28;1741227;80;21160;-41
2020/12/21 10:06:52;;;;;;;10.28;5.62;;;;;;;-0.70;71.54;101834.41;1701345;81;21148;-41
2020/12/21 10:09:24;;;;;;;13.30;5.40;;;;;;;-0.73;71.66;101838.07;1736202;80;21626;-42
2020/12/21 10:20:11;;;;;;;9.73;5.80;;;;;;;-0.55;71.07;101837.16;1742717;81;21083;-37
2020/12/21 10:22:39;;;;;;;7.53;5.10;;;;;;;-0.63;70.90;101838.33;1737784;80;21155;-37
2020/12/21 10:25:08;;;;;;;8.13;5.53;;;;;;;-0.65;70.78;101836.02;1737379;80;21160;-42
2020/12/21 10:27:36;;;;;;;13.80;6.35;;;;;;;-0.67;70.70;101837.20;1736172;80;21160;-37
2020/12/21 10:30:26;;;;;;;9.40;5.28;;;;;;;-0.63;70.51;101834.08;1792669;78;23014;-38
2020/12/21 10:33:20;;;;;;;8.48;6.15;;;;;;;-0.63;70.60;101839.61;1748281;79;21565;-41
2020/12/21 10:36:00;;;;;;;10.15;5.28;;;;;;;-0.59;70.19;101841.19;1744693;81;21665;-44
2020/12/21 10:38:33;;;;;;;11.00;6.60;;;;;;;-0.59;69.77;101837.33;1739114;81;21139;-39
2020/12/21 10:45:41;;;;;;;7.15;5.37;;;;;;;-0.58;69.46;101836.58;1645297;85;21222;-41
2020/12/21 10:48:15;;;;;;;8.40;6.03;;;;;;;-0.60;69.21;101832.09;1623636;85;21224;-36
2020/12/21 10:50:55;;;;;;;8.63;6.15;;;;;;;-0.68;69.03;101839.28;1650279;85;21222;-38
2020/12/21 10:53:36;;;;;;;12.15;5.95;;;;;;;-0.79;69.27;101841.89;1634198;85;21201;-41
2020/12/21 10:56:14;;;;;;;10.40;6.37;;;;;;;-0.86;69.83;101840.18;1651601;86;21194;-41
2020/12/21 10:59:10;;;;;;;9.43;6.72;;;;;;;-0.80;70.06;101834.58;1653070;85;21627;-38
2020/12/21 11:01:51;;;;;;;11.00;7.85;;;;;;;-0.74;70.19;101834.12;1648647;85;21388;-37
2020/12/21 11:04:41;;;;;;;17.25;9.73;;;;;;;-0.67;70.35;101834.64;1636455;85;21678;-37
2020/12/21 11:07:11;;;;;;;11.53;6.47;;;;;;;-0.60;70.27;101837.23;1652424;85;21580;-37
2020/12/21 11:09:46;;;;;;;11.53;5.50;;;;;;;-0.54;70.29;101831.23;1649244;86;21168;-42
2020/12/21 11:12:14;;;;;;;8.85;5.47;;;;;;;-0.50;70.01;101830.66;1688993;81;21514;-37
2020/12/21 11:14:46;;;;;;;13.48;7.22;;;;;;;-0.54;69.76;101830.83;1736816;81;21710;-38
2020/12/21 11:18:02;;;;;;;11.30;6.78;;;;;;;-0.57;69.57;101831.03;1735055;81;21399;-42
2020/12/21 11:22:04;;;;;;;9.35;5.70;;;;;;;-0.62;69.61;101829.42;1741486;81;21155;-37
2020/12/21 11:25:20;;;;;;;9.03;5.65;;;;;;;-0.74;69.66;101826.01;1741762;81;21225;-38
2020/12/21 11:28:10;;;;;;;8.98;5.55;;;;;;;-0.81;70.05;101826.37;1712939;81;21644;-42
2020/12/21 11:31:39;;;;;;;12.40;6.42;;;;;;;-0.90;70.18;101821.47;1736116;81;21765;-35
2020/12/21 11:34:34;;;;;;;7.92;5.62;;;;;;;-0.93;70.25;101827.70;1697389;81;21218;-37
2020/12/21 11:37:20;;;;;;;7.80;5.72;;;;;;;-0.98;70.55;101818.77;1664573;84;21667;-38
2020/12/21 11:40:12;;;;;;;9.38;5.72;;;;;;;-0.97;70.56;101830.83;1684366;83;21692;-41
2020/12/21 11:42:51;;;;;;;10.03;5.70;;;;;;;-0.96;70.51;101827.47;1704401;82;21190;-40
2020/12/21 11:45:25;;;;;;;7.92;5.42;;;;;;;-0.89;70.34;101830.95;1675927;82;21206;-45
2020/12/21 11:47:57;;;;;;;9.30;5.70;;;;;;;-0.86;70.16;101827.33;1706232;82;21195;-38
2020/12/21 11:50:34;;;;;;;9.43;6.08;;;;;;;-0.85;69.78;101827.83;1668086;84;21202;-36
2020/12/21 11:53:06;;;;;;;6.97;6.05;;;;;;;-0.80;69.91;101829.44;1646043;84;21206;-41
2020/12/21 11:55:34;;;;;;;7.92;6.03;;;;;;;-0.73;69.65;101825.61;1694423;84;21222;-41
2020/12/21 11:58:02;;;;;;;8.80;5.72;;;;;;;-0.69;69.45;101831.48;1693769;84;21363;-40
2020/12/21 12:00:31;;;;;;;8.83;5.55;;;;;;;-0.65;69.32;101839.48;1690804;84;21178;-42
2020/12/21 12:03:07;;;;;;;9.50;6.25;;;;;;;-0.58;69.07;101835.66;1693331;84;21545;-37
2020/12/21 12:05:39;;;;;;;8.98;6.50;;;;;;;-0.55;68.81;101839.34;1694977;84;21643;-42
2020/12/21 12:08:08;;;;;;;14.53;6.85;;;;;;;-0.57;69.00;101837.46;1653810;84;21340;-41
2020/12/21 12:10:40;;;;;;;8.73;6.12;;;;;;;-0.55;68.86;101839.34;1691481;84;21214;-42
2020/12/21 12:13:09;;;;;;;9.50;6.65;;;;;;;-0.56;68.66;101838.84;1691596;84;21221;-37
2020/12/21 12:15:40;;;;;;;6.92;5.47;;;;;;;-0.59;68.54;101841.19;1690415;84;21190;-42
2020/12/21 12:18:08;;;;;;;9.10;6.10;;;;;;;-0.60;68.78;101843.66;1705049;82;21169;-41
2020/12/21 12:20:36;;;;;;;6.85;4.90;;;;;;;-0.59;68.56;101842.87;1708057;83;21603;-37
2020/12/21 12:23:04;;;;;;;6.47;5.70;;;;;;;-0.58;68.37;101844.29;1695233;83;21935;-37
2020/12/21 12:25:32;;;;;;;8.43;5.47;;;;;;;-0.56;68.54;101849.52;1688954;83;21140;-37
2020/12/21 12:28:03;;;;;;;7.35;5.58;;;;;;;-0.59;68.32;101845.05;1704351;82;21638;-37
2020/12/21 12:30:33;;;;;;;10.10;6.12;;;;;;;-0.62;68.39;101846.14;1698110;83;21289;-42
2020/12/21 12:33:01;;;;;;;10.18;5.90;;;;;;;-0.63;68.43;101848.22;1694772;83;21179;-42
2020/12/21 12:35:29;;;;;;;7.83;4.65;;;;;;;-0.62;68.51;101847.42;1694493;83;21178;-42
2020/12/21 12:37:57;;;;;;;6.67;5.08;;;;;;;-0.64;68.42;101842.58;1698528;83;21191;-45
2020/12/21 12:40:25;;;;;;;7.67;5.30;;;;;;;-0.71;68.47;101846.77;1729085;81;21191;-42
2020/12/21 12:42:53;;;;;;;8.43;5.72;;;;;;;-0.82;68.89;101851.55;1735239;81;21560;-40
2020/12/21 12:45:21;;;;;;;11.28;7.40;;;;;;;-0.85;69.22;101846.21;1732840;81;21179;-40
2020/12/21 12:47:48;;;;;;;9.10;5.92;;;;;;;-0.84;69.56;101844.14;1736756;81;21193;-42
2020/12/21 12:50:17;;;;;;;7.92;6.03;;;;;;;-0.82;69.80;101847.30;1731417;81;21182;-41
2020/12/21 12:52:44;;;;;;;8.20;5.78;;;;;;;-0.84;69.74;101847.59;1729151;81;21201;-41
2020/12/21 12:55:12;;;;;;;6.08;4.75;;;;;;;-0.85;69.83;101843.25;1728132;81;21199;-41
2020/12/21 12:57:40;;;;;;;6.72;5.15;;;;;;;-0.83;70.23;101845.52;1731352;81;21244;-36
2020/12/21 13:00:10;;;;;;;6.50;5.17;;;;;;;-0.79;70.06;101845.35;1726618;81;21207;-38
2020/12/21 13:02:38;;;;;;;7.15;5.22;;;;;;;-0.81;70.12;101850.39;1732763;82;21179;-36
2020/12/21 13:05:06;;;;;;;9.40;6.20;;;;;;;-0.83;69.79;101845.91;1720809;82;21998;-36
2020/12/21 13:07:35;;;;;;;7.58;5.22;;;;;;;-0.89;69.81;101854.09;1727000;81;21695;-41
2020/12/21 13:10:03;;;;;;;6.00;4.40;;;;;;;-0.91;69.89;101854.37;1732356;82;21190;-37
2020/12/21 13:12:30;;;;;;;6.67;4.70;;;;;;;-0.92;69.91;101850.03;1730722;81;21171;-42
2020/12/21 13:14:59;;;;;;;7.83;5.20;;;;;;;-0.96;69.88;101844.16;1696047;83;21682;-42
2020/12/21 13:17:26;;;;;;;8.73;5.75;;;;;;;-1.05;69.84;101842.22;1738156;81;21634;-42
2020/12/21 13:19:54;;;;;;;8.18;5.25;;;;;;;-1.13;70.25;101848.50;1728602;82;21136;-37
2020/12/21 13:22:22;;;;;;;5.80;4.30;;;;;;;-1.12;70.50;101846.42;1733685;82;21542;-42
2020/12/21 13:24:50;;;;;;;7.17;4.85;;;;;;;-1.14;70.69;101841.58;1734499;82;21151;-42
2020/12/21 13:27:18;;;;;;;6.58;4.92;;;;;;;-1.19;70.82;101844.20;1738819;82;21557;-37
2020/12/21 13:29:46;;;;;;;5.83;4.40;;;;;;;-1.18;71.02;101840.84;1727020;82;21171;-43
2020/12/21 13:32:14;;;;;;;6.53;4.78;;;;;;;-1.10;70.91;101840.63;1695494;84;21714;-37
2020/12/21 13:34:41;;;;;;;5.90;4.50;;;;;;;-1.03;70.87;101838.10;1698071;84;21164;-37
2020/12/21 13:37:10;;;;;;;7.20;5.28;;;;;;;-0.99;70.65;101841.36;1696560;83;21634;-37
2020/12/21 13:46:13;;;;;;;5.70;4.50;;;;;;;-1.02;70.25;101838.59;1779149;79;23141;-38
2020/12/21 13:48:42;;;;;;;7.70;5.78;;;;;;;-1.11;70.07;101850.37;1782857;78;21206;-37
2020/12/21 13:51:10;;;;;;;7.47;4.58;;;;;;;-1.17;70.21;101848.66;1775870;79;21146;-43
2020/12/21 13:53:39;;;;;;;7.53;5.87;;;;;;;-1.19;70.23;101851.91;1794231;78;21202;-43
2020/12/21 13:56:09;;;;;;;7.45;5.85;;;;;;;-1.20;70.49;101851.42;1815824;78;21198;-38
2020/12/21 13:58:37;;;;;;;5.80;4.95;;;;;;;-1.21;70.57;101849.24;1804595;78;21581;-38
2020/12/21 14:01:06;;;;;;;9.33;5.92;;;;;;;-1.23;70.59;101849.89;1781154;78;21598;-37
2020/12/21 14:03:34;;;;;;;13.68;6.83;;;;;;;-1.26;70.58;101847.13;1781713;80;21205;-37
2020/12/21 14:06:03;;;;;;;8.23;6.00;;;;;;;-1.26;70.86;101841.59;1784541;78;21150;-37
2020/12/21 14:08:31;;;;;;;6.28;5.10;;;;;;;-1.21;70.85;101850.53;1744964;81;21497;-43
2020/12/21 14:11:00;;;;;;;8.75;5.72;;;;;;;-1.18;70.74;101849.84;1741617;82;21214;-38
2020/12/21 14:13:28;;;;;;;6.55;5.20;;;;;;;-1.15;70.47;101851.36;1753292;81;21222;-38
2020/12/21 14:15:55;;;;;;;6.42;5.03;;;;;;;-1.15;70.30;101848.80;1743631;82;21221;-38
2020/12/21 14:18:24;;;;;;;7.42;5.17;;;;;;;-1.13;70.30;101844.25;1742951;81;21222;-38
2020/12/21 14:20:52;;;;;;;5.00;4.50;;;;;;;-1.05;70.23;101851.60;1729076;83;21852;-39
2020/12/21 14:23:20;;;;;;;7.97;4.67;;;;;;;-1.00;70.04;101843.44;1723532;81;21336;-43
2020/12/21 14:25:50;;;;;;;5.92;4.50;;;;;;;-0.97;69.91;101842.78;1738606;82;21210;-38
2020/12/21 14:28:18;;;;;;;4.20;3.60;;;;;;;-0.92;69.47;101840.15;1738649;82;21194;-37
2020/12/21 14:30:46;;;;;;;4.53;3.70;;;;;;;-0.85;69.17;101851.35;1738520;82;21186;-37
2020/12/21 14:33:14;;;;;;;4.35;3.75;;;;;;;-0.85;68.79;101852.24;1726548;82;21169;-42
2020/12/21 14:35:42;;;;;;;6.15;4.25;;;;;;;-0.86;68.88;101845.32;1723310;82;21602;-42
2020/12/21 14:38:10;;;;;;;9.60;4.50;;;;;;;-0.84;68.92;101847.98;1718434;82;21226;-36
2020/12/21 14:40:38;;;;;;;5.80;4.97;;;;;;;-0.85;69.06;101837.22;1721468;83;21699;-37
2020/12/21 14:43:06;;;;;;;7.25;5.50;;;;;;;-0.80;69.11;101846.15;1752988;81;21131;-36
2020/12/21 14:45:34;;;;;;;8.55;5.08;;;;;;;-0.85;69.04;101841.96;1736962;81;21103;-42
2020/12/21 14:48:03;;;;;;;6.45;4.97;;;;;;;-0.93;69.26;101844.77;1716385;83;21222;-37
2020/12/21 14:50:31;;;;;;;10.85;5.92;;;;;;;-0.92;69.63;101846.57;1728801;83;21309;-36
2020/12/21 14:52:59;;;;;;;10.00;5.78;;;;;;;-0.88;69.69;101841.73;1712665;81;21220;-36
